Time;durP1;ratioP1;P1;durP2;ratioP2;P2;SDS_P1;SDS_P2;PMS_P1;PMS_P2;Temp;Humidity;BMP_temperature;BMP_pressure;BME280_temperature;BME280_humidity;BME280_pressure;Samples;Min_cycle;Max_cycle;Signal;HPM_P1;HPM_P2
2022/06/25 00:01:44;;;;;;;;;;;21.80;99.90;;;;;;5062317;28;20605;-80
2022/06/25 00:05:27;;;;;;;;;;;21.80;99.90;;;;;;5060525;28;19916;-79
2022/06/25 00:06:55;;;;;;;;;;;21.80;99.90;;;;;;5060478;28;19916;-80
2022/06/25 00:09:20;;;;;;;;;;;21.80;99.90;;;;;;5062697;28;19970;-79
2022/06/25 00:14:30;;;;;;;;;;;21.70;99.90;;;;;;5066073;28;20005;-80
2022/06/25 00:16:55;;;;;;;;;;;21.60;99.90;;;;;;5066282;28;20355;-80
2022/06/25 00:19:21;;;;;;;;;;;21.60;99.90;;;;;;5062403;28;20010;-81
2022/06/25 00:21:46;;;;;;;;;;;21.50;99.90;;;;;;5060907;28;19966;-81
2022/06/25 00:24:11;;;;;;;;;;;21.40;99.90;;;;;;5061726;28;19916;-81
2022/06/25 00:26:37;;;;;;;;;;;21.40;99.90;;;;;;5062586;28;19916;-80
2022/06/25 00:29:02;;;;;;;;;;;21.30;99.90;;;;;;5067122;28;19908;-80
2022/06/25 00:31:28;;;;;;;;;;;21.30;99.90;;;;;;5083714;28;19912;-80
2022/06/25 00:33:53;;;;;;;;;;;21.40;99.90;;;;;;5096185;28;19999;-80
2022/06/25 00:36:19;;;;;;;;;;;21.30;99.90;;;;;;5073205;28;20002;-80
2022/06/25 00:38:44;;;;;;;;;;;21.30;99.90;;;;;;5080739;28;20328;-80
2022/06/25 00:41:11;;;;;;;;;;;21.30;99.90;;;;;;5095409;28;20372;-80
2022/06/25 00:43:37;;;;;;;;;;;21.40;99.90;;;;;;5074898;28;19916;-80
2022/06/25 00:46:03;;;;;;;;;;;21.40;99.90;;;;;;5083766;28;19958;-81
2022/06/25 00:48:28;;;;;;;;;;;21.40;99.90;;;;;;5085817;28;19951;-80
2022/06/25 00:50:56;;;;;;;;;;;21.40;99.90;;;;;;5094083;28;20009;-80
2022/06/25 00:53:22;;;;;;;;;;;21.40;99.90;;;;;;5080732;28;19915;-81
2022/06/25 00:55:49;;;;;;;;;;;21.30;99.90;;;;;;5097988;28;19922;-80
2022/06/25 00:58:18;;;;;;;;;;;21.30;99.90;;;;;;5090090;28;20436;-80
2022/06/25 01:00:44;;;;;;;;;;;21.20;99.90;;;;;;5092995;28;19915;-80
2022/06/25 01:03:09;;;;;;;;;;;21.10;99.90;;;;;;5092294;28;19908;-82
2022/06/25 01:05:35;;;;;;;;;;;20.90;99.90;;;;;;5080649;28;19926;-82
2022/06/25 01:08:00;;;;;;;;;;;21.00;99.90;;;;;;5079833;28;20389;-82
2022/06/25 01:10:26;;;;;;;;;;;21.00;99.90;;;;;;5086941;28;19918;-82
2022/06/25 01:12:52;;;;;;;;;;;21.00;99.90;;;;;;5090662;28;20388;-80
2022/06/25 01:15:18;;;;;;;;;;;21.00;99.90;;;;;;5095844;28;20578;-80
2022/06/25 01:17:44;;;;;;;;;;;21.10;99.90;;;;;;5090196;28;19904;-79
2022/06/25 01:20:10;;;;;;;;;;;21.10;99.90;;;;;;5094750;28;19908;-79
2022/06/25 01:22:35;;;;;;;;;;;21.10;99.90;;;;;;5090158;28;20616;-79
2022/06/25 01:25:01;;;;;;;;;;;21.10;99.90;;;;;;5096607;28;19907;-80
2022/06/25 01:27:26;;;;;;;;;;;21.10;99.90;;;;;;5081404;28;19908;-80
2022/06/25 01:29:52;;;;;;;;;;;21.00;99.90;;;;;;5088268;28;19938;-80
2022/06/25 01:32:17;;;;;;;;;;;20.80;99.90;;;;;;5082838;28;19974;-80
2022/06/25 01:34:42;;;;;;;;;;;20.90;99.90;;;;;;5091728;28;20393;-80
2022/06/25 01:37:08;;;;;;;;;;;20.80;99.90;;;;;;5102414;28;19908;-79
2022/06/25 01:39:33;;;;;;;;;;;20.70;99.90;;;;;;5079119;28;19908;-79
2022/06/25 01:41:58;;;;;;;;;;;20.70;99.90;;;;;;5090015;28;19911;-79
2022/06/25 01:44:24;;;;;;;;;;;20.80;99.90;;;;;;5086653;28;19953;-79
2022/06/25 01:46:49;;;;;;;;;;;20.80;99.90;;;;;;5093887;28;19926;-79
2022/06/25 01:49:15;;;;;;;;;;;20.80;99.90;;;;;;5075362;28;20422;-80
2022/06/25 01:51:41;;;;;;;;;;;20.80;99.90;;;;;;5083749;28;19908;-79
2022/06/25 01:54:07;;;;;;;;;;;20.70;99.90;;;;;;5079439;28;20322;-79
2022/06/25 01:56:32;;;;;;;;;;;20.70;99.90;;;;;;5088382;28;19919;-79
2022/06/25 01:58:58;;;;;;;;;;;20.60;99.90;;;;;;5083610;28;19915;-79
2022/06/25 02:01:23;;;;;;;;;;;20.60;99.90;;;;;;5083698;28;19911;-79
2022/06/25 02:03:48;;;;;;;;;;;20.60;99.90;;;;;;5070797;28;19911;-79
2022/06/25 02:06:14;;;;;;;;;;;20.50;99.90;;;;;;5087196;28;19904;-80
2022/06/25 02:08:40;;;;;;;;;;;20.50;99.90;;;;;;5086878;28;19915;-80
2022/06/25 02:11:06;;;;;;;;;;;20.40;99.90;;;;;;5090426;28;20324;-80
2022/06/25 02:13:32;;;;;;;;;;;20.40;99.90;;;;;;5080022;28;19962;-80
2022/06/25 02:15:58;;;;;;;;;;;20.30;99.90;;;;;;5078622;28;19924;-80
2022/06/25 02:18:24;;;;;;;;;;;20.30;99.90;;;;;;5080417;28;19919;-80
2022/06/25 02:20:50;;;;;;;;;;;20.30;99.90;;;;;;5076730;28;19908;-80
2022/06/25 02:23:16;;;;;;;;;;;20.30;99.90;;;;;;5082095;28;20428;-80
2022/06/25 02:25:42;;;;;;;;;;;20.30;99.90;;;;;;5079376;28;20653;-79
2022/06/25 02:28:08;;;;;;;;;;;20.20;99.90;;;;;;5077883;28;19987;-79
2022/06/25 02:30:33;;;;;;;;;;;20.10;99.90;;;;;;5091714;28;20069;-79
2022/06/25 02:32:59;;;;;;;;;;;20.10;99.90;;;;;;5077877;28;20321;-79
2022/06/25 02:35:24;;;;;;;;;;;20.10;99.90;;;;;;5091121;28;19954;-79
2022/06/25 02:37:50;;;;;;;;;;;20.00;99.90;;;;;;5094372;28;19942;-79
2022/06/25 02:40:15;;;;;;;;;;;20.00;99.90;;;;;;5079491;28;19908;-78
2022/06/25 02:42:41;;;;;;;;;;;19.90;99.90;;;;;;5089472;28;19939;-79
2022/06/25 02:45:08;;;;;;;;;;;19.90;99.90;;;;;;5079741;28;20366;-79
2022/06/25 02:47:33;;;;;;;;;;;19.90;99.90;;;;;;5089646;28;19991;-79
2022/06/25 02:49:59;;;;;;;;;;;19.90;99.90;;;;;;5087947;28;19994;-79
2022/06/25 02:52:24;;;;;;;;;;;19.80;99.90;;;;;;5082893;28;19908;-79
2022/06/25 02:54:50;;;;;;;;;;;19.80;99.90;;;;;;5081293;28;19962;-79
2022/06/25 03:00:00;;;;;;;;;;;19.70;99.90;;;;;;5082778;28;19978;-79
2022/06/25 03:02:26;;;;;;;;;;;19.60;99.90;;;;;;5083391;28;20395;-79
2022/06/25 03:04:51;;;;;;;;;;;19.60;99.90;;;;;;5082247;28;19990;-80
2022/06/25 03:07:17;;;;;;;;;;;19.60;99.90;;;;;;5092297;28;20003;-80
2022/06/25 03:09:43;;;;;;;;;;;19.60;99.90;;;;;;5073009;28;19959;-81
2022/06/25 03:12:08;;;;;;;;;;;19.70;99.90;;;;;;5084116;28;19908;-79
2022/06/25 03:14:33;;;;;;;;;;;19.70;99.90;;;;;;5078632;28;19915;-79
2022/06/25 03:16:59;;;;;;;;;;;19.70;99.90;;;;;;5091444;28;19908;-79
2022/06/25 03:19:24;;;;;;;;;;;19.70;99.90;;;;;;5080635;28;19915;-79
2022/06/25 03:21:50;;;;;;;;;;;19.70;99.90;;;;;;5080218;28;19962;-79
2022/06/25 03:24:15;;;;;;;;;;;19.70;99.90;;;;;;5079610;28;19931;-78
2022/06/25 03:26:41;;;;;;;;;;;19.70;99.90;;;;;;5097613;28;19912;-79
2022/06/25 03:29:06;;;;;;;;;;;19.80;99.90;;;;;;5087304;28;19962;-78
2022/06/25 03:31:32;;;;;;;;;;;19.80;99.90;;;;;;5076277;28;19920;-79
2022/06/25 03:33:57;;;;;;;;;;;19.80;99.90;;;;;;5087850;28;19923;-78
2022/06/25 03:36:23;;;;;;;;;;;19.80;99.90;;;;;;5083984;28;20359;-79
2022/06/25 03:38:48;;;;;;;;;;;19.80;99.90;;;;;;5088454;28;19995;-79
2022/06/25 03:41:32;;;;;;;;;;;19.90;99.90;;;;;;5077420;28;19908;-79
2022/06/25 03:43:58;;;;;;;;;;;19.90;99.90;;;;;;5068702;28;19916;-79
2022/06/25 03:46:23;;;;;;;;;;;19.90;99.90;;;;;;5082152;28;20406;-79
2022/06/25 03:48:49;;;;;;;;;;;20.00;99.90;;;;;;5077019;28;20290;-79
2022/06/25 03:51:14;;;;;;;;;;;20.00;99.90;;;;;;5084862;28;21098;-80
2022/06/25 03:53:40;;;;;;;;;;;19.90;99.90;;;;;;5074939;28;19908;-80
2022/06/25 03:56:05;;;;;;;;;;;19.90;99.90;;;;;;5066620;28;20011;-80
2022/06/25 03:58:31;;;;;;;;;;;20.00;99.90;;;;;;5061016;28;20286;-80
2022/06/25 04:00:56;;;;;;;;;;;20.00;99.90;;;;;;5062130;28;19999;-79
2022/06/25 04:03:21;;;;;;;;;;;20.10;99.90;;;;;;5059030;28;19923;-79
2022/06/25 04:05:47;;;;;;;;;;;20.20;99.90;;;;;;5055882;28;19908;-79
2022/06/25 04:08:12;;;;;;;;;;;20.40;99.90;;;;;;5062105;28;19916;-80
2022/06/25 04:10:38;;;;;;;;;;;20.40;99.90;;;;;;5072149;28;19963;-79
2022/06/25 04:13:03;;;;;;;;;;;20.50;99.90;;;;;;5086935;28;20653;-80
2022/06/25 04:15:28;;;;;;;;;;;20.60;99.90;;;;;;5062446;28;19995;-80
2022/06/25 04:17:54;;;;;;;;;;;20.60;99.90;;;;;;5068972;28;19908;-80
2022/06/25 04:20:19;;;;;;;;;;;20.70;99.90;;;;;;5072022;28;19924;-80
2022/06/25 04:22:45;;;;;;;;;;;20.80;99.90;;;;;;5064182;28;20329;-79
2022/06/25 04:25:10;;;;;;;;;;;20.90;99.90;;;;;;5062961;28;19913;-80
2022/06/25 04:30:20;;;;;;;;;;;20.90;99.90;;;;;;5063679;28;19927;-80
2022/06/25 04:32:45;;;;;;;;;;;20.90;99.90;;;;;;5072790;28;19905;-80
2022/06/25 04:35:11;;;;;;;;;;;20.90;99.90;;;;;;5054994;28;20355;-80
2022/06/25 04:37:36;;;;;;;;;;;21.00;99.90;;;;;;5065955;28;19908;-80
2022/06/25 04:40:02;;;;;;;;;;;21.00;99.90;;;;;;5073149;28;20005;-80
2022/06/25 04:42:27;;;;;;;;;;;21.20;99.90;;;;;;5076094;28;20546;-80
2022/06/25 04:44:53;;;;;;;;;;;21.20;99.90;;;;;;5069589;28;19916;-79
2022/06/25 04:47:18;;;;;;;;;;;21.20;99.90;;;;;;5064071;28;20342;-79
2022/06/25 04:49:43;;;;;;;;;;;21.30;99.90;;;;;;5069187;28;19912;-80
2022/06/25 04:52:09;;;;;;;;;;;21.40;99.90;;;;;;5065852;28;19908;-80
2022/06/25 04:54:35;;;;;;;;;;;21.40;99.90;;;;;;5079108;28;19916;-80
2022/06/25 04:57:00;;;;;;;;;;;21.50;99.90;;;;;;5075768;28;19915;-81
2022/06/25 04:59:26;;;;;;;;;;;21.50;99.90;;;;;;5089101;28;19914;-81
2022/06/25 05:01:51;;;;;;;;;;;21.40;99.90;;;;;;5086185;28;19912;-80
2022/06/25 05:04:16;;;;;;;;;;;21.40;99.90;;;;;;5088232;28;19989;-81
2022/06/25 05:06:43;;;;;;;;;;;21.40;99.90;;;;;;5085431;28;20037;-81
2022/06/25 05:09:09;;;;;;;;;;;21.40;99.90;;;;;;5075073;28;19904;-80
2022/06/25 05:11:35;;;;;;;;;;;21.50;99.90;;;;;;5076975;28;19912;-80
2022/06/25 05:14:00;;;;;;;;;;;21.40;99.90;;;;;;5086122;28;20011;-80
2022/06/25 05:16:26;;;;;;;;;;;21.60;99.90;;;;;;5089871;28;19916;-80
2022/06/25 05:18:52;;;;;;;;;;;21.60;99.90;;;;;;5076697;28;19930;-80
2022/06/25 05:21:17;;;;;;;;;;;21.50;99.90;;;;;;5079292;28;19925;-80
2022/06/25 05:23:43;;;;;;;;;;;21.80;99.90;;;;;;5083336;28;20346;-80
2022/06/25 05:26:08;;;;;;;;;;;22.00;99.90;;;;;;5092873;28;19908;-80
2022/06/25 05:28:33;;;;;;;;;;;22.10;99.90;;;;;;5096265;28;20433;-80
2022/06/25 05:30:59;;;;;;;;;;;22.30;99.90;;;;;;5075509;28;19920;-80
2022/06/25 05:33:24;;;;;;;;;;;22.30;99.90;;;;;;5087502;28;19908;-82
2022/06/25 05:35:50;;;;;;;;;;;22.40;99.90;;;;;;5086933;28;20448;-81
2022/06/25 05:38:15;;;;;;;;;;;22.40;99.90;;;;;;5083975;28;20358;-81
2022/06/25 05:40:41;;;;;;;;;;;22.50;99.90;;;;;;5082083;28;19908;-80
2022/06/25 05:43:06;;;;;;;;;;;22.40;99.90;;;;;;5086035;28;19954;-80
2022/06/25 05:45:32;;;;;;;;;;;22.40;99.90;;;;;;5076486;28;20410;-80
2022/06/25 05:47:57;;;;;;;;;;;22.50;99.90;;;;;;5084479;28;19938;-81
2022/06/25 05:50:23;;;;;;;;;;;22.50;99.90;;;;;;5073283;28;19916;-82
2022/06/25 05:52:48;;;;;;;;;;;22.50;99.90;;;;;;5077466;28;19916;-82
2022/06/25 05:55:14;;;;;;;;;;;22.50;99.90;;;;;;5082825;28;20390;-81
2022/06/25 05:57:39;;;;;;;;;;;22.50;99.90;;;;;;5080506;28;20460;-82
2022/06/25 06:00:05;;;;;;;;;;;22.40;99.90;;;;;;5089533;28;19908;-82
2022/06/25 06:02:31;;;;;;;;;;;22.30;99.90;;;;;;5089554;28;19958;-82
2022/06/25 06:04:56;;;;;;;;;;;22.30;99.90;;;;;;5085405;28;19991;-82
2022/06/25 06:07:22;;;;;;;;;;;22.40;99.90;;;;;;5075783;28;19963;-80
2022/06/25 06:09:47;;;;;;;;;;;22.40;99.90;;;;;;5087118;28;20015;-81
2022/06/25 06:12:13;;;;;;;;;;;22.50;99.90;;;;;;5110356;28;19915;-82
2022/06/25 06:14:38;;;;;;;;;;;22.50;99.90;;;;;;5081214;28;19912;-82
2022/06/25 06:17:04;;;;;;;;;;;22.50;99.90;;;;;;5092579;28;19912;-82
2022/06/25 06:19:29;;;;;;;;;;;22.50;99.90;;;;;;5075038;28;19909;-81
2022/06/25 06:21:55;;;;;;;;;;;22.40;99.90;;;;;;5087946;28;19915;-82
2022/06/25 06:24:20;;;;;;;;;;;22.50;99.90;;;;;;5108185;28;19908;-82
2022/06/25 06:26:45;;;;;;;;;;;22.60;99.90;;;;;;5079672;28;20283;-81
2022/06/25 06:29:11;;;;;;;;;;;22.60;99.90;;;;;;5095754;28;20008;-82
2022/06/25 06:31:36;;;;;;;;;;;22.60;99.90;;;;;;5086167;28;20158;-83
2022/06/25 06:34:02;;;;;;;;;;;22.60;99.90;;;;;;5080829;28;19931;-81
2022/06/25 06:36:27;;;;;;;;;;;22.60;99.90;;;;;;5079577;28;19968;-81
2022/06/25 06:38:53;;;;;;;;;;;22.50;99.90;;;;;;5078373;28;20542;-81
2022/06/25 06:41:18;;;;;;;;;;;22.60;99.90;;;;;;5082081;28;19923;-81
2022/06/25 06:43:44;;;;;;;;;;;22.60;99.90;;;;;;5084680;28;20470;-80
2022/06/25 06:46:10;;;;;;;;;;;22.60;99.90;;;;;;5084922;28;19908;-80
2022/06/25 06:48:35;;;;;;;;;;;22.60;99.90;;;;;;5087312;28;20331;-80
2022/06/25 06:51:00;;;;;;;;;;;22.60;99.90;;;;;;5081965;28;20057;-81
2022/06/25 06:53:26;;;;;;;;;;;22.60;99.90;;;;;;5081191;28;19908;-80
2022/06/25 06:55:51;;;;;;;;;;;22.60;99.90;;;;;;5078757;28;19930;-81
2022/06/25 06:58:17;;;;;;;;;;;22.60;99.90;;;;;;5079609;28;19966;-82
2022/06/25 07:00:43;;;;;;;;;;;22.60;99.90;;;;;;5078084;28;19911;-81
2022/06/25 07:03:08;;;;;;;;;;;22.70;99.90;;;;;;5075078;28;19958;-83
2022/06/25 07:05:34;;;;;;;;;;;22.80;99.90;;;;;;5069336;28;19908;-84
2022/06/25 07:07:59;;;;;;;;;;;23.00;99.90;;;;;;5089073;28;19974;-83
2022/06/25 07:10:24;;;;;;;;;;;23.10;99.90;;;;;;5079426;28;19912;-83
2022/06/25 07:12:50;;;;;;;;;;;23.20;99.90;;;;;;5083433;28;19912;-82
2022/06/25 07:15:15;;;;;;;;;;;23.30;99.90;;;;;;5084321;28;19908;-82
2022/06/25 07:17:41;;;;;;;;;;;23.30;99.90;;;;;;5079932;28;19930;-83
2022/06/25 07:20:06;;;;;;;;;;;23.40;99.90;;;;;;5089779;28;20373;-82
2022/06/25 07:22:32;;;;;;;;;;;23.40;99.90;;;;;;5103257;28;20376;-82
2022/06/25 07:24:57;;;;;;;;;;;23.30;99.90;;;;;;5083582;28;19916;-77
2022/06/25 07:27:23;;;;;;;;;;;23.30;99.90;;;;;;5075475;28;19915;-77
2022/06/25 07:29:48;;;;;;;;;;;23.40;99.90;;;;;;5078199;28;19969;-76
2022/06/25 07:32:14;;;;;;;;;;;23.50;99.90;;;;;;5082277;28;20022;-76
2022/06/25 07:34:39;;;;;;;;;;;23.60;99.90;;;;;;5081325;28;19912;-76
2022/06/25 07:37:04;;;;;;;;;;;23.70;99.90;;;;;;5080724;28;19914;-76
2022/06/25 07:39:30;;;;;;;;;;;23.60;99.90;;;;;;5082594;28;19999;-78
2022/06/25 07:41:55;;;;;;;;;;;23.60;99.90;;;;;;5080093;28;19955;-84
2022/06/25 07:44:21;;;;;;;;;;;23.70;99.90;;;;;;5087893;28;19919;-89
2022/06/25 07:46:46;;;;;;;;;;;23.70;99.90;;;;;;5080635;28;20678;-85
2022/06/25 07:49:12;;;;;;;;;;;23.90;99.90;;;;;;5083327;28;20754;-85
2022/06/25 07:51:56;;;;;;;;;;;24.20;99.90;;;;;;5090396;28;19916;-89
2022/06/25 07:54:22;;;;;;;;;;;24.40;99.90;;;;;;5089247;28;20002;-80
2022/06/25 07:56:48;;;;;;;;;;;24.50;99.90;;;;;;5094657;28;19908;-81
2022/06/25 07:59:13;;;;;;;;;;;24.50;99.90;;;;;;5087820;28;20054;-87
2022/06/25 08:01:39;;;;;;;;;;;24.50;99.90;;;;;;5097178;28;19990;-90
2022/06/25 08:04:04;;;;;;;;;;;24.70;99.90;;;;;;5088757;28;20328;-90
2022/06/25 08:06:31;;;;;;;;;;;24.70;99.90;;;;;;5089285;28;19915;-90
2022/06/25 08:08:56;;;;;;;;;;;24.60;99.90;;;;;;5083937;28;20441;-89
2022/06/25 08:11:22;;;;;;;;;;;24.80;99.90;;;;;;5081219;28;19912;-87
2022/06/25 08:13:47;;;;;;;;;;;24.80;99.90;;;;;;5091849;28;20394;-86
2022/06/25 08:16:13;;;;;;;;;;;24.80;99.90;;;;;;5079914;28;20329;-86
2022/06/25 08:18:38;;;;;;;;;;;25.00;99.90;;;;;;5085773;28;20408;-87
2022/06/25 08:21:04;;;;;;;;;;;25.10;99.90;;;;;;5090835;28;19912;-89
2022/06/25 08:23:30;;;;;;;;;;;25.30;99.90;;;;;;5072275;28;19908;-87
2022/06/25 08:25:55;;;;;;;;;;;25.40;99.90;;;;;;5081972;28;19958;-89
2022/06/25 08:28:22;;;;;;;;;;;25.30;99.90;;;;;;5077999;28;19962;-88
2022/06/25 08:30:48;;;;;;;;;;;25.20;99.90;;;;;;5079826;28;19980;-89
2022/06/25 08:33:14;;;;;;;;;;;25.50;99.90;;;;;;5083645;28;20366;-88
2022/06/25 08:35:40;;;;;;;;;;;25.60;99.90;;;;;;5087039;28;19991;-81
2022/06/25 08:38:05;;;;;;;;;;;25.70;99.90;;;;;;5084829;28;21261;-87
2022/06/25 08:40:31;;;;;;;;;;;25.40;99.00;;;;;;5085826;28;19955;-84
2022/06/25 08:42:56;;;;;;;;;;;24.90;99.90;;;;;;5082321;28;19908;-82
2022/06/25 08:45:21;;;;;;;;;;;24.80;99.90;;;;;;5084401;28;19916;-78
2022/06/25 08:47:48;;;;;;;;;;;25.00;99.90;;;;;;5077986;28;19978;-80
2022/06/25 08:50:14;;;;;;;;;;;25.40;99.90;;;;;;5079086;28;20006;-81
2022/06/25 08:52:43;;;;;;;;;;;25.50;98.90;;;;;;5078122;28;19931;-82
2022/06/25 08:55:10;;;;;;;;;;;25.00;99.40;;;;;;5074763;28;19938;-83
2022/06/25 08:57:35;;;;;;;;;;;25.30;99.90;;;;;;5056253;28;20655;-84
2022/06/25 09:00:01;;;;;;;;;;;25.60;99.90;;;;;;5080842;28;20010;-83
2022/06/25 09:02:26;;;;;;;;;;;25.80;98.80;;;;;;5080531;28;19918;-82
2022/06/25 09:04:52;;;;;;;;;;;25.80;96.80;;;;;;5075742;28;19916;-85
2022/06/25 09:07:19;;;;;;;;;;;25.90;97.70;;;;;;5073624;28;21416;-82
2022/06/25 09:09:45;;;;;;;;;;;26.20;96.00;;;;;;5078033;28;19920;-82
2022/06/25 09:12:12;;;;;;;;;;;26.60;93.80;;;;;;5071533;28;20417;-86
2022/06/25 09:14:38;;;;;;;;;;;26.90;92.60;;;;;;5077378;28;20615;-85
2022/06/25 09:20:06;;;;;;;;;;;27.20;95.00;;;;;;5069608;28;19931;-83
2022/06/25 09:22:34;;;;;;;;;;;26.20;91.00;;;;;;5079067;28;20464;-84
2022/06/25 09:24:59;;;;;;;;;;;26.50;93.70;;;;;;5072494;28;19954;-85
2022/06/25 09:27:35;;;;;;;;;;;27.20;91.90;;;;;;5077830;28;20441;-77
2022/06/25 09:30:28;;;;;;;;;;;27.50;89.40;;;;;;5073508;28;20613;-78
2022/06/25 09:32:54;;;;;;;;;;;27.70;86.00;;;;;;5064216;28;20298;-78
2022/06/25 09:35:40;;;;;;;;;;;27.70;85.80;;;;;;5085576;28;19908;-84
2022/06/25 09:38:07;;;;;;;;;;;28.00;86.30;;;;;;5076153;28;19916;-80
2022/06/25 09:40:33;;;;;;;;;;;28.10;81.00;;;;;;5081997;28;19912;-80
2022/06/25 09:42:59;;;;;;;;;;;27.90;81.00;;;;;;5074651;28;19912;-80
2022/06/25 09:45:25;;;;;;;;;;;27.70;82.30;;;;;;5089399;28;19915;-79
2022/06/25 09:47:53;;;;;;;;;;;27.60;84.00;;;;;;5076825;28;20353;-79
2022/06/25 09:50:19;;;;;;;;;;;27.80;82.80;;;;;;5076328;28;20366;-79
2022/06/25 09:52:49;;;;;;;;;;;28.10;80.30;;;;;;5072645;28;19916;-81
2022/06/25 09:55:14;;;;;;;;;;;27.60;82.90;;;;;;5083950;28;20054;-80
2022/06/25 09:57:40;;;;;;;;;;;27.00;81.90;;;;;;5078046;28;20063;-80
2022/06/25 10:00:06;;;;;;;;;;;26.00;86.30;;;;;;5075009;28;20005;-79
2022/06/25 10:02:32;;;;;;;;;;;26.00;89.90;;;;;;5072792;28;19916;-79
2022/06/25 10:04:59;;;;;;;;;;;26.20;91.60;;;;;;5082008;28;19969;-85
2022/06/25 10:07:59;;;;;;;;;;;26.40;93.00;;;;;;5090739;28;19908;-80
2022/06/25 10:10:15;;;;;;;;;;;25.90;90.40;;;;;;5079118;28;20354;-81
2022/06/25 10:12:41;;;;;;;;;;;26.10;94.50;;;;;;5078690;28;19959;-81
2022/06/25 10:15:07;;;;;;;;;;;25.40;92.80;;;;;;5086736;28;20018;-81
2022/06/25 10:17:33;;;;;;;;;;;25.10;96.30;;;;;;5082983;28;20390;-79
2022/06/25 10:19:59;;;;;;;;;;;25.20;95.10;;;;;;5074743;28;20002;-80
2022/06/25 10:22:24;;;;;;;;;;;25.00;97.50;;;;;;5063562;28;19919;-81
2022/06/25 10:24:50;;;;;;;;;;;24.90;95.30;;;;;;5072500;28;20014;-80
2022/06/25 10:27:16;;;;;;;;;;;24.90;97.70;;;;;;5067450;28;19944;-78
2022/06/25 10:29:51;;;;;;;;;;;24.90;96.60;;;;;;5066732;28;19953;-79
2022/06/25 10:32:17;;;;;;;;;;;24.70;97.00;;;;;;5082023;28;19930;-80
2022/06/25 10:34:56;;;;;;;;;;;24.80;99.90;;;;;;5068120;28;19920;-80
2022/06/25 10:37:22;;;;;;;;;;;25.10;99.30;;;;;;5065562;28;19929;-80
2022/06/25 10:39:48;;;;;;;;;;;25.60;96.70;;;;;;5078896;28;19916;-79
2022/06/25 10:45:03;;;;;;;;;;;25.40;98.00;;;;;;5069101;28;19940;-82
2022/06/25 10:47:41;;;;;;;;;;;25.70;99.70;;;;;;5064459;28;19916;-82
2022/06/25 10:50:21;;;;;;;;;;;25.90;99.90;;;;;;5074073;28;20018;-88
2022/06/25 10:53:05;;;;;;;;;;;26.00;99.90;;;;;;5066436;28;19916;-86
2022/06/25 10:55:56;;;;;;;;;;;26.00;99.90;;;;;;5075775;28;20312;-81
2022/06/25 10:58:23;;;;;;;;;;;25.90;94.30;;;;;;5066994;28;20523;-82
2022/06/25 11:01:07;;;;;;;;;;;26.20;94.90;;;;;;5069058;28;20366;-82
2022/06/25 11:03:35;;;;;;;;;;;26.40;98.30;;;;;;5057578;28;19964;-82
2022/06/25 11:06:16;;;;;;;;;;;26.70;96.30;;;;;;5074317;28;20420;-81
2022/06/25 11:08:41;;;;;;;;;;;26.80;91.40;;;;;;5068234;28;19988;-84
2022/06/25 11:11:07;;;;;;;;;;;26.90;90.20;;;;;;5073231;28;20294;-83
2022/06/25 11:13:33;;;;;;;;;;;27.20;93.50;;;;;;5070878;28;20492;-80
2022/06/25 11:15:58;;;;;;;;;;;27.40;87.50;;;;;;5078561;28;19915;-82
2022/06/25 11:18:24;;;;;;;;;;;27.50;90.10;;;;;;5065409;28;20385;-81
2022/06/25 11:20:49;;;;;;;;;;;27.30;90.60;;;;;;5076229;28;20378;-81
2022/06/25 11:23:15;;;;;;;;;;;26.70;91.70;;;;;;5063791;28;20007;-81
2022/06/25 11:28:52;;;;;;;;;;;26.10;96.60;;;;;;5074770;28;20025;-85
2022/06/25 11:31:21;;;;;;;;;;;26.20;96.00;;;;;;5082755;28;19916;-81
2022/06/25 11:33:47;;;;;;;;;;;26.30;95.20;;;;;;5064784;28;19920;-79
2022/06/25 11:36:13;;;;;;;;;;;26.30;92.50;;;;;;5079967;28;20371;-80
2022/06/25 11:38:39;;;;;;;;;;;26.40;92.00;;;;;;5081718;28;19919;-79
2022/06/25 11:41:05;;;;;;;;;;;26.70;92.40;;;;;;5073452;28;20461;-80
2022/06/25 11:43:31;;;;;;;;;;;27.20;91.00;;;;;;5079937;28;19912;-80
2022/06/25 11:45:57;;;;;;;;;;;27.60;86.50;;;;;;5071464;28;19923;-80
2022/06/25 11:48:26;;;;;;;;;;;27.90;89.30;;;;;;5078113;28;20421;-81
2022/06/25 11:50:55;;;;;;;;;;;28.80;90.20;;;;;;5080950;28;19920;-81
2022/06/25 11:53:21;;;;;;;;;;;28.70;85.30;;;;;;5075023;28;19915;-80
2022/06/25 11:56:00;;;;;;;;;;;28.70;87.30;;;;;;5071622;28;19920;-82
2022/06/25 11:58:29;;;;;;;;;;;29.10;81.40;;;;;;5074740;28;19919;-82
2022/06/25 12:00:58;;;;;;;;;;;28.60;87.10;;;;;;5071081;28;19915;-81
2022/06/25 12:03:24;;;;;;;;;;;28.40;88.60;;;;;;5075778;28;19916;-81
2022/06/25 12:05:50;;;;;;;;;;;28.70;83.10;;;;;;5074658;28;19908;-81
2022/06/25 12:08:16;;;;;;;;;;;28.70;81.80;;;;;;5078980;28;19943;-80
2022/06/25 12:10:42;;;;;;;;;;;29.00;85.30;;;;;;5081331;28;19978;-81
2022/06/25 12:13:08;;;;;;;;;;;29.40;82.10;;;;;;5080925;28;19912;-81
2022/06/25 12:15:34;;;;;;;;;;;29.40;73.50;;;;;;5073071;28;19908;-81
2022/06/25 12:18:03;;;;;;;;;;;29.20;76.00;;;;;;5073250;28;19919;-82
2022/06/25 12:20:29;;;;;;;;;;;29.10;72.60;;;;;;5071037;28;19912;-81
2022/06/25 12:22:56;;;;;;;;;;;28.80;76.80;;;;;;5081872;28;19969;-81
2022/06/25 12:25:31;;;;;;;;;;;28.90;76.80;;;;;;5082678;28;20006;-81
2022/06/25 12:27:57;;;;;;;;;;;29.20;81.80;;;;;;5079325;28;19912;-81
2022/06/25 12:30:32;;;;;;;;;;;29.30;76.50;;;;;;5084387;28;19924;-86
2022/06/25 12:33:05;;;;;;;;;;;29.20;72.90;;;;;;5071402;28;19915;-81
2022/06/25 12:35:31;;;;;;;;;;;29.20;71.10;;;;;;5089210;28;19966;-80
2022/06/25 12:38:00;;;;;;;;;;;29.70;68.60;;;;;;5079912;28;20354;-80
2022/06/25 12:40:25;;;;;;;;;;;30.10;72.90;;;;;;5082156;28;19916;-79
2022/06/25 12:42:55;;;;;;;;;;;31.40;69.70;;;;;;5083948;28;20093;-84
2022/06/25 12:45:21;;;;;;;;;;;32.40;63.50;;;;;;5081504;28;19942;-79
2022/06/25 12:47:46;;;;;;;;;;;33.60;58.40;;;;;;5086642;28;19909;-79
2022/06/25 12:50:25;;;;;;;;;;;34.10;61.70;;;;;;5083528;28;20396;-79
2022/06/25 12:52:50;;;;;;;;;;;35.10;57.60;;;;;;5082992;28;19916;-81
2022/06/25 12:55:23;;;;;;;;;;;35.10;60.10;;;;;;5076671;28;19911;-83
2022/06/25 12:57:49;;;;;;;;;;;35.10;54.10;;;;;;5074666;28;19962;-79
2022/06/25 13:00:22;;;;;;;;;;;35.30;52.10;;;;;;5068688;28;19951;-79
2022/06/25 13:02:48;;;;;;;;;;;36.10;52.50;;;;;;5081197;28;19908;-81
2022/06/25 13:05:15;;;;;;;;;;;36.60;48.90;;;;;;5081349;28;20398;-79
2022/06/25 13:07:41;;;;;;;;;;;36.00;49.30;;;;;;5078140;28;19916;-79
2022/06/25 13:10:06;;;;;;;;;;;37.10;47.90;;;;;;5080924;28;20621;-79
2022/06/25 13:12:32;;;;;;;;;;;38.50;48.10;;;;;;5081614;28;19915;-79
2022/06/25 13:14:58;;;;;;;;;;;37.00;49.60;;;;;;5080568;28;19916;-80
2022/06/25 13:17:23;;;;;;;;;;;35.10;51.40;;;;;;5083391;28;20450;-87
2022/06/25 13:19:48;;;;;;;;;;;32.70;56.10;;;;;;5072232;28;20851;-81
2022/06/25 13:22:14;;;;;;;;;;;32.20;56.00;;;;;;5075930;28;19916;-81
2022/06/25 13:24:40;;;;;;;;;;;31.20;57.90;;;;;;5070455;28;19918;-84
2022/06/25 13:27:05;;;;;;;;;;;30.50;60.90;;;;;;5087857;28;19908;-82
2022/06/25 13:29:31;;;;;;;;;;;30.10;63.50;;;;;;5079441;28;19908;-83
2022/06/25 13:31:58;;;;;;;;;;;31.20;61.70;;;;;;5078314;28;20263;-82
2022/06/25 13:34:24;;;;;;;;;;;32.40;60.30;;;;;;5072403;28;19912;-79
2022/06/25 13:36:49;;;;;;;;;;;34.00;57.00;;;;;;5078796;28;19978;-85
2022/06/25 13:39:14;;;;;;;;;;;36.90;49.80;;;;;;5073621;28;20437;-83
2022/06/25 13:41:40;;;;;;;;;;;38.70;47.10;;;;;;5075324;28;19905;-85
2022/06/25 13:44:06;;;;;;;;;;;38.20;46.20;;;;;;5088845;28;19951;-79
2022/06/25 13:46:32;;;;;;;;;;;35.20;49.40;;;;;;5087588;28;19912;-86
2022/06/25 13:48:58;;;;;;;;;;;33.30;54.40;;;;;;5082760;28;20087;-88
2022/06/25 13:51:23;;;;;;;;;;;32.00;56.40;;;;;;5089619;28;20354;-84
2022/06/25 13:53:49;;;;;;;;;;;30.80;64.60;;;;;;5075702;28;19912;-84
2022/06/25 13:56:14;;;;;;;;;;;31.20;64.90;;;;;;5071352;28;19916;-85
2022/06/25 13:58:40;;;;;;;;;;;30.80;60.60;;;;;;5074480;28;19908;-84
2022/06/25 14:01:06;;;;;;;;;;;29.50;65.10;;;;;;5068190;28;20370;-81
2022/06/25 14:03:31;;;;;;;;;;;28.40;69.10;;;;;;5070051;28;20283;-84
2022/06/25 14:05:57;;;;;;;;;;;27.90;72.70;;;;;;5075504;28;20720;-82
2022/06/25 14:08:22;;;;;;;;;;;27.60;73.40;;;;;;5060658;28;20185;-81
2022/06/25 14:10:48;;;;;;;;;;;27.30;78.60;;;;;;5061531;28;20355;-77
2022/06/25 14:13:14;;;;;;;;;;;27.00;78.20;;;;;;5066563;28;20007;-78
2022/06/25 14:15:40;;;;;;;;;;;27.20;83.70;;;;;;5065089;28;19915;-76
2022/06/25 14:18:05;;;;;;;;;;;27.30;83.90;;;;;;5066305;28;19915;-75
2022/06/25 14:20:30;;;;;;;;;;;27.40;84.50;;;;;;5070004;28;19908;-75
2022/06/25 14:22:56;;;;;;;;;;;27.30;88.80;;;;;;5081996;28;20011;-76
2022/06/25 14:25:22;;;;;;;;;;;27.30;89.40;;;;;;5068834;28;19962;-83
2022/06/25 14:27:48;;;;;;;;;;;27.40;91.20;;;;;;5067903;28;19967;-78
2022/06/25 14:30:14;;;;;;;;;;;27.20;84.70;;;;;;5063786;28;19916;-84